Buoy 21952

sailwx.info

Track history (hours):
 
Tides and Currents Weather Stations Pressure Air Temp Water Temp Dewpoint Dewpoint Depression Visibility Wind Speed Wind Dir Waves Ship Positions

Drifting buoy 21952

Last reported at 2018-Feb-21 05:00 UTC. Time now 2018-Feb-21 07:01 UTC.
Position N 31°04' W 147°56'.

Barometer 1027.3 mb
Water temperature 19.6 ° C

Date/timePositionNaut miles runAvg speedWind from/ knotsBaromVisibWave heightAir tempDewpointWater temp
2018-Feb-21 05:00N 31°04' W 147°56'1 1.0 1027.3 19.6
2018-Feb-21 04:00N 31°04' W 147°55'1 0.8 1026.8 19.6
2018-Feb-21 03:00N 31°03' W 147°55'0 0.0 1026.2 19.6
2018-Feb-21 02:00N 31°03' W 147°55'1 1.3 1025.9 19.5
2018-Feb-21 01:00N 31°02' W 147°54'0 0.0 1025.7 19.5
2018-Feb-21 00:00N 31°02' W 147°54'3 0.7 1025.7 19.5
2018-Feb-20 20:00N 31°00' W 147°52'1 1.0 1027.8 19.5
2018-Feb-20 19:00N 31°00' W 147°50'1 0.6 1028.0 19.5
2018-Feb-20 18:00N 30°59' W 147°50'2 2.0 1027.8 19.4
2018-Feb-20 17:00N 30°58' W 147°49'0 0.0 1027.5 19.4
2018-Feb-20 16:00N 30°58' W 147°49'1 1.2 1026.9 19.4
2018-Feb-20 15:00N 30°58' W 147°47'1 1.2 1026.5 19.4
2018-Feb-20 14:00N 30°57' W 147°46'0 0.0 1026.3 19.4
2018-Feb-20 13:00N 30°57' W 147°46'3 3.3 1026.7 19.4
2018-Feb-20 12:00N 30°56' W 147°43'1 0.2 1026.8 19.3
2018-Feb-20 07:00N 30°56' W 147°41'1 1.0 1028.5 19.3
2018-Feb-20 06:00N 30°56' W 147°40'1 0.5 1028.2 19.3
2018-Feb-20 05:00N 30°56' W 147°41'2 1.5 1027.6 19.3
2018-Feb-20 04:00N 30°56' W 147°39'2 1.6 1027.4 19.4
2018-Feb-20 03:00N 30°55' W 147°38'0 0.0 1026.8 19.4
2018-Feb-20 02:00N 30°55' W 147°38'0 0.0 1026.6 19.4
2018-Feb-20 01:00N 30°55' W 147°38'3 2.6 1026.8 19.4
2018-Feb-20 00:00N 30°55' W 147°35'2 0.4 1027.2 19.4
2018-Feb-19 20:00N 30°53' W 147°34'1 0.5 1029.2 19.3
2018-Feb-19 19:00N 30°53' W 147°33'3 1.3 1028.7 19.3
2018-Feb-19 17:00N 30°53' W 147°30'1 0.6 1027.6 19.3
2018-Feb-19 16:00N 30°53' W 147°30'1 1.2 1027.3 19.3
2018-Feb-19 15:00N 30°53' W 147°29'1 1.0 1027.1 19.3
2018-Feb-19 14:00N 30°53' W 147°28'0 0.0 1027.2 19.3
2018-Feb-19 13:00N 30°53' W 147°28'4 4.3 1027.1 19.3
2018-Feb-19 12:00N 30°55' W 147°23'0 0.0 1027.1 19.3
2018-Feb-19 08:00N 30°55' W 147°23'1 1.2 1028.2 19.3
2018-Feb-19 07:00N 30°55' W 147°22'1 0.6 1028.1 19.2
2018-Feb-19 06:00N 30°55' W 147°22'1 1.0 1027.6 19.2
2018-Feb-19 05:00N 30°55' W 147°20'1 1.2 1027.4 19.2
2018-Feb-19 04:00N 30°54' W 147°19'1 1.2 1027.1 19.2
2018-Feb-19 03:00N 30°55' W 147°18'2 1.7 1026.5 19.2
2018-Feb-19 02:00N 30°54' W 147°16'0 0.0 1026.2 19.3
2018-Feb-19 01:00N 30°54' W 147°16'0 0.0 1026.2 19.3
2018-Feb-19 00:00N 30°54' W 147°16'3 1.6 1026.3 19.3
2018-Feb-18 22:00N 30°55' W 147°13'2 0.8 1027.2 19.2
2018-Feb-18 20:00N 30°53' W 147°11'1 1.0 1027.8 19.2
2018-Feb-18 19:00N 30°53' W 147°10'1 0.5 1027.9 19.2
2018-Feb-18 18:00N 30°53' W 147°10'1 0.8 1027.5 19.2
2018-Feb-18 17:00N 30°53' W 147°09'1 1.0 1026.9 19.2
2018-Feb-18 16:00N 30°53' W 147°08'1 0.8 1026.5 19.2
2018-Feb-18 15:00N 30°52' W 147°07'1 0.6 1026.0 19.2
2018-Feb-18 14:00N 30°52' W 147°07'0 0.0 1025.4 19.2
2018-Feb-18 13:00N 30°52' W 147°07'3 2.9 1025.3 19.2
2018-Feb-18 12:00N 30°49' W 147°05'1 0.3 1025.6 19.2
2018-Feb-18 07:00N 30°48' W 147°06'1 1.3 1026.2 19.2
2018-Feb-18 06:00N 30°47' W 147°05'1 1.3 1026.1 19.2
2018-Feb-18 05:00N 30°48' W 147°06'2 2.1 1025.5 19.2
2018-Feb-18 04:00N 30°46' W 147°05'1 0.6 1024.8 19.2
2018-Feb-18 03:00N 30°46' W 147°05'1 1.2 1024.3 19.2
2018-Feb-18 02:00N 30°44' W 147°05'1 0.5 1023.8 19.2
2018-Feb-18 01:00N 30°44' W 147°04'1 1.3 1023.8 19.2
2018-Feb-18 00:00N 30°43' W 147°05'0 0.0 1023.8 19.2
2018-Feb-17 23:00N 30°43' W 147°05'2 2.1 1024.4 19.2
2018-Feb-17 22:00N 30°41' W 147°04'1 0.4 1025.1 19.2
2018-Feb-17 19:00N 30°40' W 147°04'1 1.3 1025.1 19.1
2018-Feb-17 18:00N 30°39' W 147°03'1 0.8 1024.8 19.2
2018-Feb-17 17:00N 30°38' W 147°02'1 0.8 1024.4 19.2
2018-Feb-17 16:00N 30°38' W 147°02'1 0.8 1023.9 19.2
2018-Feb-17 15:00N 30°37' W 147°02'0 0.0 1023.5 19.2
2018-Feb-17 14:00N 30°37' W 147°02'0 0.0 1023.2 19.2
2018-Feb-17 13:00N 30°37' W 147°02'5 5.1 1023.6 19.2
2018-Feb-17 12:00N 30°34' W 146°58'0 0.0 1023.7 19.2
2018-Feb-17 11:00N 30°34' W 146°58'1 0.1 1024.2 19.2
2018-Feb-17 07:00N 30°34' W 146°57'1 0.8 1024.8 19.1
2018-Feb-17 06:00N 30°34' W 146°58'1 1.2 1024.5 19.1
2018-Feb-17 05:00N 30°33' W 146°56'2 2.2 1024.1 19.1
2018-Feb-17 04:00N 30°32' W 146°54'1 0.6 1023.5 19.1
2018-Feb-17 03:00N 30°32' W 146°54'2 1.6 1023.3 19.1
2018-Feb-17 02:00N 30°32' W 146°52'0 0.0 1023.4 19.1
2018-Feb-17 01:00N 30°32' W 146°52'1 1.2 1023.1 19.1
2018-Feb-17 00:00N 30°31' W 146°51'0 0.0 1023.2 19.1
2018-Feb-16 23:00N 30°31' W 146°51'4 1.4 1023.8 19.1
2018-Feb-16 20:00N 30°29' W 146°47'1 0.5 1025.6 19.2
2018-Feb-16 19:00N 30°29' W 146°46'1 1.2 1025.4 19.2
2018-Feb-16 18:00N 30°29' W 146°45'1 1.2 1025.4 19.2
2018-Feb-16 17:00N 30°28' W 146°45'1 0.8 1025.0 19.2
2018-Feb-16 16:00N 30°28' W 146°44'2 1.7 1024.5 19.2
2018-Feb-16 15:00N 30°27' W 146°43'1 1.0 1024.1 19.2
2018-Feb-16 14:00N 30°27' W 146°44'1 1.0 1023.9 19.3
2018-Feb-16 13:00N 30°27' W 146°43'0 0.0 1023.8 19.3
2018-Feb-16 12:00N 30°27' W 146°43'3 2.7 1023.7 19.3
2018-Feb-16 11:00N 30°25' W 146°40'2 0.4 1024.3 19.3
2018-Feb-16 07:00N 30°26' W 146°38'1 0.6 1025.7 19.3
2018-Feb-16 06:00N 30°25' W 146°38'0 0.0 1025.0 19.3
2018-Feb-16 05:00N 30°25' W 146°38'1 0.8 1024.4 19.3
2018-Feb-16 04:00N 30°25' W 146°38'2 1.7 1024.0 19.3
2018-Feb-16 03:00N 30°25' W 146°36'1 0.6 1023.7 19.4
2018-Feb-16 02:00N 30°25' W 146°36'1 0.5 1023.8 19.4
2018-Feb-16 01:00N 30°25' W 146°35'1 0.5 1023.7 19.4
2018-Feb-16 00:00N 30°25' W 146°35'0 0.0 1023.4 19.4
2018-Feb-15 23:00N 30°25' W 146°35'4 1.2 1024.6 19.4
2018-Feb-15 20:00N 30°25' W 146°31'1 0.6 1025.6 19.4
2018-Feb-15 19:00N 30°25' W 146°31'1 0.8 1025.7 19.3
2018-Feb-15 18:00N 30°25' W 146°30'1 0.5 1025.3 19.3
2018-Feb-15 17:00N 30°25' W 146°29'1 0.6 1025.1 19.4
2018-Feb-15 16:00N 30°25' W 146°29'3 2.6 1024.9 19.4
2018-Feb-15 15:00N 30°25' W 146°26'1 0.5 1024.6 19.4
2018-Feb-15 14:00N 30°25' W 146°27'1 0.6 1024.9 19.4
2018-Feb-15 12:00N 30°26' W 146°26'3 2.7 1025.1 19.4
2018-Feb-15 11:00N 30°26' W 146°23'0 0.0 1026.0 19.4
2018-Feb-15 08:00N 30°26' W 146°23'1 1.0 1026.9 19.3
2018-Feb-15 07:00N 30°26' W 146°22'1 0.5 1027.0 19.3
2018-Feb-15 06:00N 30°26' W 146°21'1 1.2 1026.9 19.3
2018-Feb-15 05:00N 30°27' W 146°20'2 2.2 1026.6 19.3
2018-Feb-15 04:00N 30°28' W 146°17'1 0.6 1026.3 19.3
2018-Feb-15 03:00N 30°28' W 146°17'1 0.5 1025.9 19.3
2018-Feb-15 02:00N 30°28' W 146°17'0 0.0 1025.6 19.3
2018-Feb-15 01:00N 30°28' W 146°17'2 1.6 1025.4 19.4
2018-Feb-15 00:00N 30°29' W 146°16'0 0.0 1025.6 19.3
2018-Feb-14 23:00N 30°29' W 146°16'2 0.8 1026.3 19.4
2018-Feb-14 20:00N 30°31' W 146°14'2 1.7 1028.0 19.3
2018-Feb-14 19:00N 30°31' W 146°12'2 1.9 1028.0 19.3
2018-Feb-14 18:00N 30°32' W 146°11'1 1.3 1027.8 19.3
2018-Feb-14 17:00N 30°34' W 146°12'3 2.6 1027.6 19.3
2018-Feb-14 16:00N 30°34' W 146°09'1 0.8 1026.9 19.3
2018-Feb-14 15:00N 30°33' W 146°10'1 0.8 1026.3 19.3
2018-Feb-14 14:00N 30°34' W 146°09'1 1.3 1025.8 19.3
2018-Feb-14 13:00N 30°35' W 146°08'0 0.0 1025.9 19.3
2018-Feb-14 12:00N 30°35' W 146°08'4 1.0 1026.2 19.2
2018-Feb-14 08:00N 30°38' W 146°05'0 0.0 1028.0 19.3
2018-Feb-14 07:00N 30°38' W 146°05'1 0.8 1028.6 19.4
2018-Feb-14 06:00N 30°38' W 146°05'0 0.0 1028.3 19.4
2018-Feb-14 05:00N 30°38' W 146°05'2 1.6 1027.6 19.4
2018-Feb-14 04:00N 30°40' W 146°04'0 0.0 1026.8 19.4
2018-Feb-14 03:00N 30°40' W 146°04'1 0.5 1026.3 19.4
2018-Feb-14 02:00N 30°40' W 146°03'2 1.7 1026.0 19.4
2018-Feb-14 01:00N 30°40' W 146°01'0 0.0 1026.4 19.3
2018-Feb-14 00:00N 30°40' W 146°01'0 0.0 1026.6 19.3
2018-Feb-13 23:00N 30°40' W 146°01'5 2.3 1026.7 19.3
2018-Feb-13 21:00N 30°42' W 145°56'0 0.0 1028.1 19.3
2018-Feb-13 20:00N 30°42' W 145°56'1 1.3 1028.5 19.3
2018-Feb-13 19:00N 30°43' W 145°56'1 1.2 1028.6 19.3
2018-Feb-13 18:00N 30°44' W 145°55'1 0.5 1028.2 19.3
2018-Feb-13 17:00N 30°44' W 145°54'0 0.0 1027.6 19.3
2018-Feb-13 16:00N 30°44' W 145°54'1 1.0 1027.2 19.3
2018-Feb-13 15:00N 30°44' W 145°53'1 1.2 1026.7 19.3
2018-Feb-13 14:00N 30°44' W 145°52'1 0.8 1026.7 19.3
2018-Feb-13 13:00N 30°44' W 145°52'1 0.6 1026.8 19.3
2018-Feb-13 12:00N 30°44' W 145°52'3 0.5 1026.8 19.3
2018-Feb-13 07:00N 30°44' W 145°49'2 1.7 1027.4 19.3
2018-Feb-13 06:00N 30°44' W 145°47'1 0.8 1027.3 19.3
2018-Feb-13 05:00N 30°44' W 145°48'1 0.6 1026.9 19.3
2018-Feb-13 04:00N 30°44' W 145°48'1 1.0 1026.5 19.3
2018-Feb-13 03:00N 30°44' W 145°47'1 0.8 1026.1 19.3
2018-Feb-13 02:00N 30°44' W 145°47'1 1.0 1025.6 19.3
2018-Feb-13 01:00N 30°44' W 145°46'2 1.5 1025.2 19.2
2018-Feb-13 00:00N 30°44' W 145°44'0 0.0 1025.2 19.2
2018-Feb-12 20:00N 30°44' W 145°44'0 0.0 1026.4 19.2
2018-Feb-12 19:00N 30°44' W 145°44'2 2.0 1026.0 19.3
2018-Feb-12 18:00N 30°45' W 145°43'2 1.6 1025.7 19.3
2018-Feb-12 17:00N 30°44' W 145°44'0 0.0 1025.3 19.3
2018-Feb-12 16:00N 30°44' W 145°44'1 0.8 1025.0 19.3
2018-Feb-12 15:00N 30°44' W 145°43'1 0.5 1024.3 19.3
2018-Feb-12 14:00N 30°44' W 145°43'1 0.5 1024.0 19.3
2018-Feb-12 13:00N 30°44' W 145°43'1 1.2 1024.2 19.3
2018-Feb-12 12:00N 30°44' W 145°42'0 0.0 1024.2 19.3
2018-Feb-12 07:00N 30°44' W 145°42'1 1.0 1024.8 19.4
2018-Feb-12 06:00N 30°44' W 145°41'1 0.6 1024.3 19.4
2018-Feb-12 05:00N 30°44' W 145°41'1 0.8 1023.4 19.4
2018-Feb-12 04:00N 30°44' W 145°40'1 0.5 1022.7 19.4
2018-Feb-12 03:00N 30°44' W 145°40'0 0.0 1022.5 19.5
2018-Feb-12 02:00N 30°44' W 145°40'1 0.6 1022.4 19.5
2018-Feb-12 01:00N 30°44' W 145°40'0 0.0 1021.8 19.5
2018-Feb-12 00:00N 30°44' W 145°40'2 0.8 1021.8 19.5
2018-Feb-11 21:00N 30°46' W 145°37'1 0.6 1023.0 19.4
2018-Feb-11 20:00N 30°46' W 145°37'0 0.0 1022.9 19.4
2018-Feb-11 19:00N 30°46' W 145°37'1 0.8 1022.8 19.3
2018-Feb-11 18:00N 30°47' W 145°37'1 0.6 1022.6 19.2
2018-Feb-11 17:00N 30°47' W 145°37'1 1.0 1022.0 19.3
2018-Feb-11 16:00N 30°47' W 145°35'1 0.8 1020.9 19.3
2018-Feb-11 15:00N 30°47' W 145°36'1 0.8 1020.5 19.3
2018-Feb-11 14:00N 30°47' W 145°35'1 0.5 1020.2 19.4
2018-Feb-11 13:00N 30°47' W 145°35'1 0.5 1020.2 19.4
2018-Feb-11 12:00N 30°47' W 145°34'1 0.2 1020.4 19.3
2018-Feb-11 07:00N 30°48' W 145°33'1 0.5 1021.2 19.3
2018-Feb-11 06:00N 30°48' W 145°32'1 0.8 1020.9 19.3
2018-Feb-11 05:00N 30°49' W 145°33'   1020.2 19.3
Track history (hours):
 
Tides and Currents Weather Stations Pressure Air Temp Water Temp Dewpoint Dewpoint Depression Visibility Wind Speed Wind Dir Waves Ship Positions

Drifting buoy 21952

Last reported at 2018-Feb-21 05:00 UTC. Time now 2018-Feb-21 07:01 UTC.
Position N 31°04' W 147°56'.

Barometer 1027.3 mb
Water temperature 19.6 ° C

Date/timePositionNaut miles runAvg speedWind from/ knotsBaromVisibWave heightAir tempDewpointWater temp
2018-Feb-21 05:00N 31°04' W 147°56'1 1.0 1027.3 19.6
2018-Feb-21 04:00N 31°04' W 147°55'1 0.8 1026.8 19.6
2018-Feb-21 03:00N 31°03' W 147°55'0 0.0 1026.2 19.6
2018-Feb-21 02:00N 31°03' W 147°55'1 1.3 1025.9 19.5
2018-Feb-21 01:00N 31°02' W 147°54'0 0.0 1025.7 19.5
2018-Feb-21 00:00N 31°02' W 147°54'3 0.7 1025.7 19.5
2018-Feb-20 20:00N 31°00' W 147°52'1 1.0 1027.8 19.5
2018-Feb-20 19:00N 31°00' W 147°50'1 0.6 1028.0 19.5
2018-Feb-20 18:00N 30°59' W 147°50'2 2.0 1027.8 19.4
2018-Feb-20 17:00N 30°58' W 147°49'0 0.0 1027.5 19.4
2018-Feb-20 16:00N 30°58' W 147°49'1 1.2 1026.9 19.4
2018-Feb-20 15:00N 30°58' W 147°47'1 1.2 1026.5 19.4
2018-Feb-20 14:00N 30°57' W 147°46'0 0.0 1026.3 19.4
2018-Feb-20 13:00N 30°57' W 147°46'3 3.3 1026.7 19.4
2018-Feb-20 12:00N 30°56' W 147°43'1 0.2 1026.8 19.3
2018-Feb-20 07:00N 30°56' W 147°41'1 1.0 1028.5 19.3
2018-Feb-20 06:00N 30°56' W 147°40'1 0.5 1028.2 19.3
2018-Feb-20 05:00N 30°56' W 147°41'2 1.5 1027.6 19.3
2018-Feb-20 04:00N 30°56' W 147°39'2 1.6 1027.4 19.4
2018-Feb-20 03:00N 30°55' W 147°38'0 0.0 1026.8 19.4
2018-Feb-20 02:00N 30°55' W 147°38'0 0.0 1026.6 19.4
2018-Feb-20 01:00N 30°55' W 147°38'3 2.6 1026.8 19.4
2018-Feb-20 00:00N 30°55' W 147°35'2 0.4 1027.2 19.4
2018-Feb-19 20:00N 30°53' W 147°34'1 0.5 1029.2 19.3
2018-Feb-19 19:00N 30°53' W 147°33'3 1.3 1028.7 19.3
2018-Feb-19 17:00N 30°53' W 147°30'1 0.6 1027.6 19.3
2018-Feb-19 16:00N 30°53' W 147°30'1 1.2 1027.3 19.3
2018-Feb-19 15:00N 30°53' W 147°29'1 1.0 1027.1 19.3
2018-Feb-19 14:00N 30°53' W 147°28'0 0.0 1027.2 19.3
2018-Feb-19 13:00N 30°53' W 147°28'4 4.3 1027.1 19.3
2018-Feb-19 12:00N 30°55' W 147°23'0 0.0 1027.1 19.3
2018-Feb-19 08:00N 30°55' W 147°23'1 1.2 1028.2 19.3
2018-Feb-19 07:00N 30°55' W 147°22'1 0.6 1028.1 19.2
2018-Feb-19 06:00N 30°55' W 147°22'1 1.0 1027.6 19.2
2018-Feb-19 05:00N 30°55' W 147°20'1 1.2 1027.4 19.2
2018-Feb-19 04:00N 30°54' W 147°19'1 1.2 1027.1 19.2
2018-Feb-19 03:00N 30°55' W 147°18'2 1.7 1026.5 19.2
2018-Feb-19 02:00N 30°54' W 147°16'0 0.0 1026.2 19.3
2018-Feb-19 01:00N 30°54' W 147°16'0 0.0 1026.2 19.3
2018-Feb-19 00:00N 30°54' W 147°16'3 1.6 1026.3 19.3
2018-Feb-18 22:00N 30°55' W 147°13'2 0.8 1027.2 19.2
2018-Feb-18 20:00N 30°53' W 147°11'1 1.0 1027.8 19.2
2018-Feb-18 19:00N 30°53' W 147°10'1 0.5 1027.9 19.2
2018-Feb-18 18:00N 30°53' W 147°10'1 0.8 1027.5 19.2
2018-Feb-18 17:00N 30°53' W 147°09'1 1.0 1026.9 19.2
2018-Feb-18 16:00N 30°53' W 147°08'1 0.8 1026.5 19.2
2018-Feb-18 15:00N 30°52' W 147°07'1 0.6 1026.0 19.2
2018-Feb-18 14:00N 30°52' W 147°07'0 0.0 1025.4 19.2
2018-Feb-18 13:00N 30°52' W 147°07'3 2.9 1025.3 19.2
2018-Feb-18 12:00N 30°49' W 147°05'1 0.3 1025.6 19.2
2018-Feb-18 07:00N 30°48' W 147°06'1 1.3 1026.2 19.2
2018-Feb-18 06:00N 30°47' W 147°05'1 1.3 1026.1 19.2
2018-Feb-18 05:00N 30°48' W 147°06'2 2.1 1025.5 19.2
2018-Feb-18 04:00N 30°46' W 147°05'1 0.6 1024.8 19.2
2018-Feb-18 03:00N 30°46' W 147°05'1 1.2 1024.3 19.2
2018-Feb-18 02:00N 30°44' W 147°05'1 0.5 1023.8 19.2
2018-Feb-18 01:00N 30°44' W 147°04'1 1.3 1023.8 19.2
2018-Feb-18 00:00N 30°43' W 147°05'0 0.0 1023.8 19.2
2018-Feb-17 23:00N 30°43' W 147°05'2 2.1 1024.4 19.2
2018-Feb-17 22:00N 30°41' W 147°04'1 0.4 1025.1 19.2
2018-Feb-17 19:00N 30°40' W 147°04'1 1.3 1025.1 19.1
2018-Feb-17 18:00N 30°39' W 147°03'1 0.8 1024.8 19.2
2018-Feb-17 17:00N 30°38' W 147°02'1 0.8 1024.4 19.2
2018-Feb-17 16:00N 30°38' W 147°02'1 0.8 1023.9 19.2
2018-Feb-17 15:00N 30°37' W 147°02'0 0.0 1023.5 19.2
2018-Feb-17 14:00N 30°37' W 147°02'0 0.0 1023.2 19.2
2018-Feb-17 13:00N 30°37' W 147°02'5 5.1 1023.6 19.2
2018-Feb-17 12:00N 30°34' W 146°58'0 0.0 1023.7 19.2
2018-Feb-17 11:00N 30°34' W 146°58'1 0.1 1024.2 19.2
2018-Feb-17 07:00N 30°34' W 146°57'1 0.8 1024.8 19.1
2018-Feb-17 06:00N 30°34' W 146°58'1 1.2 1024.5 19.1
2018-Feb-17 05:00N 30°33' W 146°56'2 2.2 1024.1 19.1
2018-Feb-17 04:00N 30°32' W 146°54'1 0.6 1023.5 19.1
2018-Feb-17 03:00N 30°32' W 146°54'2 1.6 1023.3 19.1
2018-Feb-17 02:00N 30°32' W 146°52'0 0.0 1023.4 19.1
2018-Feb-17 01:00N 30°32' W 146°52'1 1.2 1023.1 19.1
2018-Feb-17 00:00N 30°31' W 146°51'0 0.0 1023.2 19.1
2018-Feb-16 23:00N 30°31' W 146°51'4 1.4 1023.8 19.1
2018-Feb-16 20:00N 30°29' W 146°47'1 0.5 1025.6 19.2
2018-Feb-16 19:00N 30°29' W 146°46'1 1.2 1025.4 19.2
2018-Feb-16 18:00N 30°29' W 146°45'1 1.2 1025.4 19.2
2018-Feb-16 17:00N 30°28' W 146°45'1 0.8 1025.0 19.2
2018-Feb-16 16:00N 30°28' W 146°44'2 1.7 1024.5 19.2
2018-Feb-16 15:00N 30°27' W 146°43'1 1.0 1024.1 19.2
2018-Feb-16 14:00N 30°27' W 146°44'1 1.0 1023.9 19.3
2018-Feb-16 13:00N 30°27' W 146°43'0 0.0 1023.8 19.3
2018-Feb-16 12:00N 30°27' W 146°43'3 2.7 1023.7 19.3
2018-Feb-16 11:00N 30°25' W 146°40'2 0.4 1024.3 19.3
2018-Feb-16 07:00N 30°26' W 146°38'1 0.6 1025.7 19.3
2018-Feb-16 06:00N 30°25' W 146°38'0 0.0 1025.0 19.3
2018-Feb-16 05:00N 30°25' W 146°38'1 0.8 1024.4 19.3
2018-Feb-16 04:00N 30°25' W 146°38'2 1.7 1024.0 19.3
2018-Feb-16 03:00N 30°25' W 146°36'1 0.6 1023.7 19.4
2018-Feb-16 02:00N 30°25' W 146°36'1 0.5 1023.8 19.4
2018-Feb-16 01:00N 30°25' W 146°35'1 0.5 1023.7 19.4
2018-Feb-16 00:00N 30°25' W 146°35'0 0.0 1023.4 19.4
2018-Feb-15 23:00N 30°25' W 146°35'4 1.2 1024.6 19.4
2018-Feb-15 20:00N 30°25' W 146°31'1 0.6 1025.6 19.4
2018-Feb-15 19:00N 30°25' W 146°31'1 0.8 1025.7 19.3
2018-Feb-15 18:00N 30°25' W 146°30'1 0.5 1025.3 19.3
2018-Feb-15 17:00N 30°25' W 146°29'1 0.6 1025.1 19.4
2018-Feb-15 16:00N 30°25' W 146°29'3 2.6 1024.9 19.4
2018-Feb-15 15:00N 30°25' W 146°26'1 0.5 1024.6 19.4
2018-Feb-15 14:00N 30°25' W 146°27'1 0.6 1024.9 19.4
2018-Feb-15 12:00N 30°26' W 146°26'3 2.7 1025.1 19.4
2018-Feb-15 11:00N 30°26' W 146°23'0 0.0 1026.0 19.4
2018-Feb-15 08:00N 30°26' W 146°23'1 1.0 1026.9 19.3
2018-Feb-15 07:00N 30°26' W 146°22'1 0.5 1027.0 19.3
2018-Feb-15 06:00N 30°26' W 146°21'1 1.2 1026.9 19.3
2018-Feb-15 05:00N 30°27' W 146°20'2 2.2 1026.6 19.3
2018-Feb-15 04:00N 30°28' W 146°17'1 0.6 1026.3 19.3
2018-Feb-15 03:00N 30°28' W 146°17'1 0.5 1025.9 19.3
2018-Feb-15 02:00N 30°28' W 146°17'0 0.0 1025.6 19.3
2018-Feb-15 01:00N 30°28' W 146°17'2 1.6 1025.4 19.4
2018-Feb-15 00:00N 30°29' W 146°16'0 0.0 1025.6 19.3
2018-Feb-14 23:00N 30°29' W 146°16'2 0.8 1026.3 19.4
2018-Feb-14 20:00N 30°31' W 146°14'2 1.7 1028.0 19.3
2018-Feb-14 19:00N 30°31' W 146°12'2 1.9 1028.0 19.3
2018-Feb-14 18:00N 30°32' W 146°11'1 1.3 1027.8 19.3
2018-Feb-14 17:00N 30°34' W 146°12'3 2.6 1027.6 19.3
2018-Feb-14 16:00N 30°34' W 146°09'1 0.8 1026.9 19.3
2018-Feb-14 15:00N 30°33' W 146°10'1 0.8 1026.3 19.3
2018-Feb-14 14:00N 30°34' W 146°09'1 1.3 1025.8 19.3
2018-Feb-14 13:00N 30°35' W 146°08'0 0.0 1025.9 19.3
2018-Feb-14 12:00N 30°35' W 146°08'4 1.0 1026.2 19.2
2018-Feb-14 08:00N 30°38' W 146°05'0 0.0 1028.0 19.3
2018-Feb-14 07:00N 30°38' W 146°05'1 0.8 1028.6 19.4
2018-Feb-14 06:00N 30°38' W 146°05'0 0.0 1028.3 19.4
2018-Feb-14 05:00N 30°38' W 146°05'2 1.6 1027.6 19.4
2018-Feb-14 04:00N 30°40' W 146°04'0 0.0 1026.8 19.4
2018-Feb-14 03:00N 30°40' W 146°04'1 0.5 1026.3 19.4
2018-Feb-14 02:00N 30°40' W 146°03'2 1.7 1026.0 19.4
2018-Feb-14 01:00N 30°40' W 146°01'0 0.0 1026.4 19.3
2018-Feb-14 00:00N 30°40' W 146°01'0 0.0 1026.6 19.3
2018-Feb-13 23:00N 30°40' W 146°01'5 2.3 1026.7 19.3
2018-Feb-13 21:00N 30°42' W 145°56'0 0.0 1028.1 19.3
2018-Feb-13 20:00N 30°42' W 145°56'1 1.3 1028.5 19.3
2018-Feb-13 19:00N 30°43' W 145°56'1 1.2 1028.6 19.3
2018-Feb-13 18:00N 30°44' W 145°55'1 0.5 1028.2 19.3
2018-Feb-13 17:00N 30°44' W 145°54'0 0.0 1027.6 19.3
2018-Feb-13 16:00N 30°44' W 145°54'1 1.0 1027.2 19.3
2018-Feb-13 15:00N 30°44' W 145°53'1 1.2 1026.7 19.3
2018-Feb-13 14:00N 30°44' W 145°52'1 0.8 1026.7 19.3
2018-Feb-13 13:00N 30°44' W 145°52'1 0.6 1026.8 19.3
2018-Feb-13 12:00N 30°44' W 145°52'3 0.5 1026.8 19.3
2018-Feb-13 07:00N 30°44' W 145°49'2 1.7 1027.4 19.3
2018-Feb-13 06:00N 30°44' W 145°47'1 0.8 1027.3 19.3
2018-Feb-13 05:00N 30°44' W 145°48'1 0.6 1026.9 19.3
2018-Feb-13 04:00N 30°44' W 145°48'1 1.0 1026.5 19.3
2018-Feb-13 03:00N 30°44' W 145°47'1 0.8 1026.1 19.3
2018-Feb-13 02:00N 30°44' W 145°47'1 1.0 1025.6 19.3
2018-Feb-13 01:00N 30°44' W 145°46'2 1.5 1025.2 19.2
2018-Feb-13 00:00N 30°44' W 145°44'0 0.0 1025.2 19.2
2018-Feb-12 20:00N 30°44' W 145°44'0 0.0 1026.4 19.2
2018-Feb-12 19:00N 30°44' W 145°44'2 2.0 1026.0 19.3
2018-Feb-12 18:00N 30°45' W 145°43'2 1.6 1025.7 19.3
2018-Feb-12 17:00N 30°44' W 145°44'0 0.0 1025.3 19.3
2018-Feb-12 16:00N 30°44' W 145°44'1 0.8 1025.0 19.3
2018-Feb-12 15:00N 30°44' W 145°43'1 0.5 1024.3 19.3
2018-Feb-12 14:00N 30°44' W 145°43'1 0.5 1024.0 19.3
2018-Feb-12 13:00N 30°44' W 145°43'1 1.2 1024.2 19.3
2018-Feb-12 12:00N 30°44' W 145°42'0 0.0 1024.2 19.3
2018-Feb-12 07:00N 30°44' W 145°42'1 1.0 1024.8 19.4
2018-Feb-12 06:00N 30°44' W 145°41'1 0.6 1024.3 19.4
2018-Feb-12 05:00N 30°44' W 145°41'1 0.8 1023.4 19.4
2018-Feb-12 04:00N 30°44' W 145°40'1 0.5 1022.7 19.4
2018-Feb-12 03:00N 30°44' W 145°40'0 0.0 1022.5 19.5
2018-Feb-12 02:00N 30°44' W 145°40'1 0.6 1022.4 19.5
2018-Feb-12 01:00N 30°44' W 145°40'0 0.0 1021.8 19.5
2018-Feb-12 00:00N 30°44' W 145°40'2 0.8 1021.8 19.5
2018-Feb-11 21:00N 30°46' W 145°37'1 0.6 1023.0 19.4
2018-Feb-11 20:00N 30°46' W 145°37'0 0.0 1022.9 19.4
2018-Feb-11 19:00N 30°46' W 145°37'1 0.8 1022.8 19.3
2018-Feb-11 18:00N 30°47' W 145°37'1 0.6 1022.6 19.2
2018-Feb-11 17:00N 30°47' W 145°37'1 1.0 1022.0 19.3
2018-Feb-11 16:00N 30°47' W 145°35'1 0.8 1020.9 19.3
2018-Feb-11 15:00N 30°47' W 145°36'1 0.8 1020.5 19.3
2018-Feb-11 14:00N 30°47' W 145°35'1 0.5 1020.2 19.4
2018-Feb-11 13:00N 30°47' W 145°35'1 0.5 1020.2 19.4
2018-Feb-11 12:00N 30°47' W 145°34'1 0.2 1020.4 19.3
2018-Feb-11 07:00N 30°48' W 145°33'1 0.5 1021.2 19.3
2018-Feb-11 06:00N 30°48' W 145°32'1 0.8 1020.9 19.3
2018-Feb-11 05:00N 30°49' W 145°33'   1020.2 19.3

Dump ship's entire track history